sensor_id;sensor_type;location;lat;lon;timestamp;pressure;altitude;pressure_sealevel;temperature;humidity
56821;BME280;42702;50.178;20.992;2022-09-21T00:01:51;99523.04;;;10.45;77.25
56821;BME280;42702;50.178;20.992;2022-09-21T00:04:19;99525.81;;;10.44;77.17
56821;BME280;42702;50.178;20.992;2022-09-21T00:06:48;99527.05;;;10.41;77.19
56821;BME280;42702;50.178;20.992;2022-09-21T00:09:16;99529.66;;;10.39;77.36
56821;BME280;42702;50.178;20.992;2022-09-21T00:11:44;99526.35;;;10.40;77.51
56821;BME280;42702;50.178;20.992;2022-09-21T00:14:13;99523.73;;;10.38;77.34
56821;BME280;42702;50.178;20.992;2022-09-21T00:16:41;99523.73;;;10.40;77.21
56821;BME280;42702;50.178;20.992;2022-09-21T00:19:10;99529.14;;;10.41;77.02
56821;BME280;42702;50.178;20.992;2022-09-21T00:21:39;99531.94;;;10.40;77.12
56821;BME280;42702;50.178;20.992;2022-09-21T00:24:07;99531.05;;;10.40;77.24
56821;BME280;42702;50.178;20.992;2022-09-21T00:26:35;99536.29;;;10.39;77.04
56821;BME280;42702;50.178;20.992;2022-09-21T00:29:03;99537.33;;;10.36;76.98
56821;BME280;42702;50.178;20.992;2022-09-21T00:31:33;99536.10;;;10.37;77.10
56821;BME280;42702;50.178;20.992;2022-09-21T00:34:01;99537.50;;;10.38;76.95
56821;BME280;42702;50.178;20.992;2022-09-21T00:36:30;99538.55;;;10.38;76.70
56821;BME280;42702;50.178;20.992;2022-09-21T00:39:00;99540.64;;;10.33;76.75
56821;BME280;42702;50.178;20.992;2022-09-21T00:41:31;99540.95;;;10.29;76.74
56821;BME280;42702;50.178;20.992;2022-09-21T00:46:44;99540.08;;;10.20;76.82
56821;BME280;42702;50.178;20.992;2022-09-21T00:49:13;99541.84;;;10.17;76.93
56821;BME280;42702;50.178;20.992;2022-09-21T00:51:43;99545.84;;;10.19;76.71
56821;BME280;42702;50.178;20.992;2022-09-21T00:54:16;99545.48;;;10.14;76.68
56821;BME280;42702;50.178;20.992;2022-09-21T00:56:46;99545.33;;;10.09;76.95
56821;BME280;42702;50.178;20.992;2022-09-21T00:59:15;99545.48;;;10.08;77.16
56821;BME280;42702;50.178;20.992;2022-09-21T01:01:48;99543.39;;;10.07;77.23
56821;BME280;42702;50.178;20.992;2022-09-21T01:04:16;99545.30;;;10.04;77.19
56821;BME280;42702;50.178;20.992;2022-09-21T01:06:46;99541.99;;;10.05;77.06
56821;BME280;42702;50.178;20.992;2022-09-21T01:09:15;99545.14;;;10.12;77.09
56821;BME280;42702;50.178;20.992;2022-09-21T01:23:24;99547.22;;;10.20;77.20
56821;BME280;42702;50.178;20.992;2022-09-21T01:32:21;99546.35;;;10.27;77.14
56821;BME280;42702;50.178;20.992;2022-09-21T01:34:54;99549.84;;;10.26;77.19
56821;BME280;42702;50.178;20.992;2022-09-21T01:37:38;99550.18;;;10.20;77.23
56821;BME280;42702;50.178;20.992;2022-09-21T01:40:12;99550.36;;;10.19;77.31
56821;BME280;42702;50.178;20.992;2022-09-21T01:42:44;99549.66;;;10.28;77.18
56821;BME280;42702;50.178;20.992;2022-09-21T01:45:17;99552.27;;;10.25;77.17
56821;BME280;42702;50.178;20.992;2022-09-21T01:47:48;99551.58;;;10.19;77.23
56821;BME280;42702;50.178;20.992;2022-09-21T01:50:24;99551.59;;;10.16;77.24
56821;BME280;42702;50.178;20.992;2022-09-21T01:53:04;99553.16;;;10.12;77.37
56821;BME280;42702;50.178;20.992;2022-09-21T01:55:56;99557.16;;;10.14;77.52
56821;BME280;42702;50.178;20.992;2022-09-21T01:58:32;99556.98;;;10.22;77.30
56821;BME280;42702;50.178;20.992;2022-09-21T02:01:03;99557.33;;;10.19;77.20
56821;BME280;42702;50.178;20.992;2022-09-21T02:03:38;99559.59;;;10.15;77.42
56821;BME280;42702;50.178;20.992;2022-09-21T02:06:10;99558.02;;;10.14;77.44
56821;BME280;42702;50.178;20.992;2022-09-21T02:08:38;99560.81;;;10.10;77.36
56821;BME280;42702;50.178;20.992;2022-09-21T02:11:07;99561.67;;;10.04;77.40
56821;BME280;42702;50.178;20.992;2022-09-21T02:13:38;99567.59;;;10.04;77.45
56821;BME280;42702;50.178;20.992;2022-09-21T02:16:37;99564.80;;;10.06;77.37
56821;BME280;42702;50.178;20.992;2022-09-21T02:22:22;99558.19;;;10.05;77.55
56821;BME280;42702;50.178;20.992;2022-09-21T02:25:51;99560.97;;;10.04;77.44
56821;BME280;42702;50.178;20.992;2022-09-21T02:28:06;99565.16;;;10.04;77.67
56821;BME280;42702;50.178;20.992;2022-09-21T02:30:36;99567.08;;;10.08;77.51
56821;BME280;42702;50.178;20.992;2022-09-21T02:34:18;99572.30;;;10.09;77.32
56821;BME280;42702;50.178;20.992;2022-09-21T02:36:44;99576.48;;;10.06;77.42
56821;BME280;42702;50.178;20.992;2022-09-21T02:39:32;99576.13;;;10.04;77.67
56821;BME280;42702;50.178;20.992;2022-09-21T02:42:12;99575.60;;;9.99;77.52
56821;BME280;42702;50.178;20.992;2022-09-21T02:44:50;99581.50;;;9.94;77.59
56821;BME280;42702;50.178;20.992;2022-09-21T02:47:57;99582.73;;;9.95;77.56
56821;BME280;42702;50.178;20.992;2022-09-21T02:50:27;99580.13;;;9.95;77.56
56821;BME280;42702;50.178;20.992;2022-09-21T02:52:57;99582.21;;;9.91;77.56
56821;BME280;42702;50.178;20.992;2022-09-21T02:55:28;99579.77;;;9.92;77.96
56821;BME280;42702;50.178;20.992;2022-09-21T02:57:58;99580.64;;;9.90;77.80
56821;BME280;42702;50.178;20.992;2022-09-21T03:00:29;99579.94;;;9.91;77.89
56821;BME280;42702;50.178;20.992;2022-09-21T03:02:57;99584.29;;;9.89;77.73
56821;BME280;42702;50.178;20.992;2022-09-21T03:05:26;99581.70;;;9.95;77.69
56821;BME280;42702;50.178;20.992;2022-09-21T03:07:56;99588.13;;;9.96;77.66
56821;BME280;42702;50.178;20.992;2022-09-21T03:10:25;99589.00;;;9.96;78.01
56821;BME280;42702;50.178;20.992;2022-09-21T03:12:56;99589.36;;;9.99;77.99
56821;BME280;42702;50.178;20.992;2022-09-21T03:15:26;99591.79;;;9.98;77.84
56821;BME280;42702;50.178;20.992;2022-09-21T03:17:54;99588.14;;;9.98;77.95
56821;BME280;42702;50.178;20.992;2022-09-21T03:20:22;99590.58;;;9.99;77.88
56821;BME280;42702;50.178;20.992;2022-09-21T03:22:51;99589.70;;;10.01;77.57
56821;BME280;42702;50.178;20.992;2022-09-21T03:25:19;99590.05;;;9.98;77.73
56821;BME280;42702;50.178;20.992;2022-09-21T03:27:47;99594.23;;;9.97;77.78
56821;BME280;42702;50.178;20.992;2022-09-21T03:30:15;99594.39;;;9.98;78.09
56821;BME280;42702;50.178;20.992;2022-09-21T03:32:43;99595.45;;;9.99;77.91
56821;BME280;42702;50.178;20.992;2022-09-21T03:35:12;99595.10;;;9.99;77.87
56821;BME280;42702;50.178;20.992;2022-09-21T03:37:40;99597.88;;;10.00;77.93
56821;BME280;42702;50.178;20.992;2022-09-21T03:40:09;99598.94;;;10.05;77.68
56821;BME280;42702;50.178;20.992;2022-09-21T03:42:40;99605.39;;;10.04;77.70
56821;BME280;42702;50.178;20.992;2022-09-21T03:45:10;99603.81;;;10.01;77.92
56821;BME280;42702;50.178;20.992;2022-09-21T03:47:39;99605.39;;;10.00;78.01
56821;BME280;42702;50.178;20.992;2022-09-21T03:50:09;99610.42;;;9.98;78.01
56821;BME280;42702;50.178;20.992;2022-09-21T03:52:37;99610.59;;;9.94;77.91
56821;BME280;42702;50.178;20.992;2022-09-21T03:55:07;99609.73;;;9.97;77.90
56821;BME280;42702;50.178;20.992;2022-09-21T03:57:35;99607.80;;;9.98;78.06
56821;BME280;42702;50.178;20.992;2022-09-21T04:00:07;99611.29;;;9.97;78.23
56821;BME280;42702;50.178;20.992;2022-09-21T04:02:36;99611.27;;;9.98;78.22
56821;BME280;42702;50.178;20.992;2022-09-21T04:05:08;99613.38;;;9.95;78.19
56821;BME280;42702;50.178;20.992;2022-09-21T04:07:36;99615.80;;;9.90;78.36
56821;BME280;42702;50.178;20.992;2022-09-21T04:10:06;99620.16;;;9.89;78.34
56821;BME280;42702;50.178;20.992;2022-09-21T04:12:35;99618.95;;;9.92;78.18
56821;BME280;42702;50.178;20.992;2022-09-21T04:15:04;99614.93;;;9.92;78.28
56821;BME280;42702;50.178;20.992;2022-09-21T04:17:34;99617.02;;;9.89;78.43
56821;BME280;42702;50.178;20.992;2022-09-21T04:20:03;99612.32;;;9.88;78.62
56821;BME280;42702;50.178;20.992;2022-09-21T04:22:31;99613.89;;;9.84;78.58
56821;BME280;42702;50.178;20.992;2022-09-21T04:24:59;99617.88;;;9.86;78.75
56821;BME280;42702;50.178;20.992;2022-09-21T04:27:28;99618.59;;;9.91;78.51
56821;BME280;42702;50.178;20.992;2022-09-21T04:29:56;99620.69;;;9.93;78.53
56821;BME280;42702;50.178;20.992;2022-09-21T04:32:25;99618.77;;;9.90;78.66
56821;BME280;42702;50.178;20.992;2022-09-21T04:34:53;99618.60;;;9.94;78.72
56821;BME280;42702;50.178;20.992;2022-09-21T04:37:21;99624.70;;;9.97;78.81
56821;BME280;42702;50.178;20.992;2022-09-21T04:39:49;99624.01;;;9.96;78.56
56821;BME280;42702;50.178;20.992;2022-09-21T04:42:18;99626.96;;;9.97;78.52
56821;BME280;42702;50.178;20.992;2022-09-21T04:44:46;99629.21;;;9.94;78.58
56821;BME280;42702;50.178;20.992;2022-09-21T04:47:14;99629.20;;;9.90;78.82
56821;BME280;42702;50.178;20.992;2022-09-21T04:49:42;99631.46;;;9.88;78.80
56821;BME280;42702;50.178;20.992;2022-09-21T04:52:11;99630.59;;;9.87;79.01
56821;BME280;42702;50.178;20.992;2022-09-21T04:54:46;99631.81;;;9.89;79.06
56821;BME280;42702;50.178;20.992;2022-09-21T04:57:14;99636.36;;;9.96;78.84
56821;BME280;42702;50.178;20.992;2022-09-21T04:59:43;99636.17;;;9.94;78.88
56821;BME280;42702;50.178;20.992;2022-09-21T05:02:11;99636.88;;;9.94;79.00
56821;BME280;42702;50.178;20.992;2022-09-21T05:04:39;99636.54;;;9.96;79.20
56821;BME280;42702;50.178;20.992;2022-09-21T05:07:07;99636.02;;;9.98;79.14
56821;BME280;42702;50.178;20.992;2022-09-21T05:09:36;99637.06;;;9.97;79.12
56821;BME280;42702;50.178;20.992;2022-09-21T05:12:23;99640.04;;;10.06;78.97
56821;BME280;42702;50.178;20.992;2022-09-21T05:14:51;99645.62;;;10.08;78.98
56821;BME280;42702;50.178;20.992;2022-09-21T05:17:19;99650.14;;;10.05;79.05
56821;BME280;42702;50.178;20.992;2022-09-21T05:19:50;99649.79;;;10.01;79.04
56821;BME280;42702;50.178;20.992;2022-09-21T05:22:19;99650.64;;;9.97;79.08
56821;BME280;42702;50.178;20.992;2022-09-21T05:24:47;99656.21;;;9.97;79.17
56821;BME280;42702;50.178;20.992;2022-09-21T05:27:15;99654.14;;;10.02;79.10
56821;BME280;42702;50.178;20.992;2022-09-21T05:29:43;99657.80;;;10.02;78.80
56821;BME280;42702;50.178;20.992;2022-09-21T05:40:13;99654.16;;;10.15;79.38
56821;BME280;42702;50.178;20.992;2022-09-21T05:42:42;99654.17;;;10.21;79.00
56821;BME280;42702;50.178;20.992;2022-09-21T05:45:18;99659.58;;;10.22;79.11
56821;BME280;42702;50.178;20.992;2022-09-21T05:48:14;99665.32;;;10.18;79.17
56821;BME280;42702;50.178;20.992;2022-09-21T06:04:46;99669.32;;;10.14;79.41
56821;BME280;42702;50.178;20.992;2022-09-21T06:07:14;99672.63;;;10.17;79.44
56821;BME280;42702;50.178;20.992;2022-09-21T06:09:42;99672.80;;;10.20;79.53
56821;BME280;42702;50.178;20.992;2022-09-21T06:12:10;99672.30;;;10.28;79.18
56821;BME280;42702;50.178;20.992;2022-09-21T06:14:38;99676.34;;;10.31;79.16
56821;BME280;42702;50.178;20.992;2022-09-21T06:17:06;99674.91;;;10.29;79.22
56821;BME280;42702;50.178;20.992;2022-09-21T06:19:34;99677.70;;;10.26;79.29
56821;BME280;42702;50.178;20.992;2022-09-21T06:22:03;99677.17;;;10.23;79.27
56821;BME280;42702;50.178;20.992;2022-09-21T06:24:31;99682.05;;;10.23;79.30
56821;BME280;42702;50.178;20.992;2022-09-21T06:26:59;99684.33;;;10.25;79.17
56821;BME280;42702;50.178;20.992;2022-09-21T06:29:27;99682.23;;;10.26;79.20
56821;BME280;42702;50.178;20.992;2022-09-21T06:31:55;99687.27;;;10.23;79.40
56821;BME280;42702;50.178;20.992;2022-09-21T06:34:23;99685.54;;;10.24;79.52
56821;BME280;42702;50.178;20.992;2022-09-21T06:36:51;99690.07;;;10.27;79.53
56821;BME280;42702;50.178;20.992;2022-09-21T06:39:19;99692.18;;;10.31;79.44
56821;BME280;42702;50.178;20.992;2022-09-21T06:41:47;99691.70;;;10.37;79.36
56821;BME280;42702;50.178;20.992;2022-09-21T06:44:16;99690.66;;;10.38;79.20
56821;BME280;42702;50.178;20.992;2022-09-21T06:46:44;99694.48;;;10.38;79.32
56821;BME280;42702;50.178;20.992;2022-09-21T06:49:12;99693.79;;;10.40;79.37
56821;BME280;42702;50.178;20.992;2022-09-21T06:51:40;99694.84;;;10.38;79.39
56821;BME280;42702;50.178;20.992;2022-09-21T06:54:09;99700.41;;;10.37;79.42
56821;BME280;42702;50.178;20.992;2022-09-21T06:56:38;99697.64;;;10.40;79.40
56821;BME280;42702;50.178;20.992;2022-09-21T06:59:09;99698.33;;;10.41;79.27
56821;BME280;42702;50.178;20.992;2022-09-21T07:01:37;99700.59;;;10.41;79.46
56821;BME280;42702;50.178;20.992;2022-09-21T07:04:06;99700.94;;;10.40;79.72
56821;BME280;42702;50.178;20.992;2022-09-21T07:06:36;99702.85;;;10.41;79.91
56821;BME280;42702;50.178;20.992;2022-09-21T07:09:04;99704.77;;;10.42;80.07
56821;BME280;42702;50.178;20.992;2022-09-21T07:11:52;99703.04;;;10.47;79.97
56821;BME280;42702;50.178;20.992;2022-09-21T07:14:21;99703.04;;;10.50;79.88
56821;BME280;42702;50.178;20.992;2022-09-21T07:16:51;99709.32;;;10.45;79.74
56821;BME280;42702;50.178;20.992;2022-09-21T07:19:19;99709.83;;;10.41;80.01
56821;BME280;42702;50.178;20.992;2022-09-21T07:21:47;99716.61;;;10.38;80.27
56821;BME280;42702;50.178;20.992;2022-09-21T07:24:15;99716.27;;;10.39;80.29
56821;BME280;42702;50.178;20.992;2022-09-21T07:26:43;99715.75;;;10.44;80.26
56821;BME280;42702;50.178;20.992;2022-09-21T07:29:12;99718.36;;;10.40;80.16
56821;BME280;42702;50.178;20.992;2022-09-21T07:31:42;99719.22;;;10.38;80.33
56821;BME280;42702;50.178;20.992;2022-09-21T07:34:11;99717.65;;;10.34;80.14
56821;BME280;42702;50.178;20.992;2022-09-21T07:36:39;99721.98;;;10.31;80.38
56821;BME280;42702;50.178;20.992;2022-09-21T07:39:09;99724.94;;;10.30;80.19
56821;BME280;42702;50.178;20.992;2022-09-21T07:41:37;99725.67;;;10.35;80.15
56821;BME280;42702;50.178;20.992;2022-09-21T07:44:05;99721.48;;;10.35;80.01
56821;BME280;42702;50.178;20.992;2022-09-21T07:46:34;99723.23;;;10.33;80.12
56821;BME280;42702;50.178;20.992;2022-09-21T07:49:03;99724.23;;;10.28;80.32
56821;BME280;42702;50.178;20.992;2022-09-21T07:51:33;99723.17;;;10.29;80.55
56821;BME280;42702;50.178;20.992;2022-09-21T07:54:01;99724.42;;;10.32;80.45
56821;BME280;42702;50.178;20.992;2022-09-21T07:56:29;99720.10;;;10.37;80.26
56821;BME280;42702;50.178;20.992;2022-09-21T07:58:58;99725.15;;;10.40;80.26
56821;BME280;42702;50.178;20.992;2022-09-21T08:01:40;99727.77;;;10.39;80.39
56821;BME280;42702;50.178;20.992;2022-09-21T08:04:09;99724.96;;;10.37;80.45
56821;BME280;42702;50.178;20.992;2022-09-21T08:06:38;99730.20;;;10.36;80.45
56821;BME280;42702;50.178;20.992;2022-09-21T08:09:07;99732.46;;;10.36;80.39
56821;BME280;42702;50.178;20.992;2022-09-21T08:11:36;99734.39;;;10.38;80.31
56821;BME280;42702;50.178;20.992;2022-09-21T08:14:05;99734.38;;;10.38;80.30
56821;BME280;42702;50.178;20.992;2022-09-21T08:16:33;99733.34;;;10.38;80.47
56821;BME280;42702;50.178;20.992;2022-09-21T08:19:05;99731.60;;;10.38;80.41
56821;BME280;42702;50.178;20.992;2022-09-21T08:21:34;99737.16;;;10.38;80.56
56821;BME280;42702;50.178;20.992;2022-09-21T08:24:02;99735.45;;;10.40;80.55
56821;BME280;42702;50.178;20.992;2022-09-21T08:26:30;99737.37;;;10.48;80.41
56821;BME280;42702;50.178;20.992;2022-09-21T08:28:58;99739.30;;;10.51;80.66
56821;BME280;42702;50.178;20.992;2022-09-21T08:31:26;99736.16;;;10.50;80.86
56821;BME280;42702;50.178;20.992;2022-09-21T08:33:55;99738.43;;;10.52;80.79
56821;BME280;42702;50.178;20.992;2022-09-21T08:36:24;99741.57;;;10.52;80.88
56821;BME280;42702;50.178;20.992;2022-09-21T08:38:52;99742.44;;;10.56;80.87
56821;BME280;42702;50.178;20.992;2022-09-21T08:41:44;99748.73;;;10.61;80.69
56821;BME280;42702;50.178;20.992;2022-09-21T08:44:23;99748.20;;;10.62;80.74
56821;BME280;42702;50.178;20.992;2022-09-21T08:49:28;99749.25;;;10.63;80.82
56821;BME280;42702;50.178;20.992;2022-09-21T08:52:02;99752.20;;;10.63;80.94
56821;BME280;42702;50.178;20.992;2022-09-21T08:57:18;99752.39;;;10.70;80.31
56821;BME280;42702;50.178;20.992;2022-09-21T08:59:48;99757.10;;;10.70;80.65
56821;BME280;42702;50.178;20.992;2022-09-21T09:05:31;99750.48;;;10.70;80.93
56821;BME280;42702;50.178;20.992;2022-09-21T09:08:34;99754.32;;;10.72;81.01
56821;BME280;42702;50.178;20.992;2022-09-21T09:14:18;99748.92;;;10.76;80.89
56821;BME280;42702;50.178;20.992;2022-09-21T09:19:49;99753.79;;;10.72;80.77
56821;BME280;42702;50.178;20.992;2022-09-21T09:22:22;99756.23;;;10.73;80.55
56821;BME280;42702;50.178;20.992;2022-09-21T09:24:56;99757.28;;;10.76;80.41
56821;BME280;42702;50.178;20.992;2022-09-21T09:27:35;99756.25;;;10.80;80.99
56821;BME280;42702;50.178;20.992;2022-09-21T09:30:23;99754.85;;;10.84;81.00
56821;BME280;42702;50.178;20.992;2022-09-21T09:35:30;99751.36;;;10.89;80.10
56821;BME280;42702;50.178;20.992;2022-09-21T09:38:08;99750.34;;;10.92;80.06
56821;BME280;42702;50.178;20.992;2022-09-21T09:43:21;99750.69;;;10.97;80.24
56821;BME280;42702;50.178;20.992;2022-09-21T09:46:06;99750.15;;;11.02;80.38
56821;BME280;42702;50.178;20.992;2022-09-21T09:49:09;99748.92;;;11.07;80.31
56821;BME280;42702;50.178;20.992;2022-09-21T09:51:41;99750.14;;;11.15;80.20
56821;BME280;42702;50.178;20.992;2022-09-21T09:54:15;99750.50;;;11.17;80.20
56821;BME280;42702;50.178;20.992;2022-09-21T09:56:44;99747.52;;;11.19;79.92
56821;BME280;42702;50.178;20.992;2022-09-21T09:59:34;99747.36;;;11.20;79.59
56821;BME280;42702;50.178;20.992;2022-09-21T10:02:19;99745.61;;;11.22;79.46
56821;BME280;42702;50.178;20.992;2022-09-21T10:05:04;99743.00;;;11.23;79.13
56821;BME280;42702;50.178;20.992;2022-09-21T10:07:39;99740.53;;;11.34;79.54
56821;BME280;42702;50.178;20.992;2022-09-21T10:10:31;99740.18;;;11.43;79.51
56821;BME280;42702;50.178;20.992;2022-09-21T10:13:13;99738.08;;;11.50;79.29
56821;BME280;42702;50.178;20.992;2022-09-21T10:15:51;99737.71;;;11.53;79.16
56821;BME280;42702;50.178;20.992;2022-09-21T10:21:18;99740.67;;;11.58;78.83
56821;BME280;42702;50.178;20.992;2022-09-21T10:23:50;99738.90;;;11.64;78.19
56821;BME280;42702;50.178;20.992;2022-09-21T10:26:20;99739.77;;;11.65;78.31
56821;BME280;42702;50.178;20.992;2022-09-21T10:28:59;99739.43;;;11.66;78.03
56821;BME280;42702;50.178;20.992;2022-09-21T10:31:29;99741.51;;;11.71;78.25
56821;BME280;42702;50.178;20.992;2022-09-21T10:36:35;99735.70;;;11.85;78.01
56821;BME280;42702;50.178;20.992;2022-09-21T10:47:17;99736.02;;;12.00;77.35
56821;BME280;42702;50.178;20.992;2022-09-21T10:49:49;99735.49;;;12.00;77.11
56821;BME280;42702;50.178;20.992;2022-09-21T10:52:22;99738.28;;;11.99;77.18
56821;BME280;42702;50.178;20.992;2022-09-21T10:54:53;99736.71;;;12.00;77.11
56821;BME280;42702;50.178;20.992;2022-09-21T10:57:23;99737.04;;;12.08;76.86
56821;BME280;42702;50.178;20.992;2022-09-21T10:59:52;99731.41;;;12.16;76.52
56821;BME280;42702;50.178;20.992;2022-09-21T11:02:27;99734.52;;;12.22;76.55
56821;BME280;42702;50.178;20.992;2022-09-21T11:07:50;99739.04;;;12.28;76.00
56821;BME280;42702;50.178;20.992;2022-09-21T11:27:39;99729.73;;;12.35;75.48
56821;BME280;42702;50.178;20.992;2022-09-21T11:30:14;99734.44;;;12.38;75.74
56821;BME280;42702;50.178;20.992;2022-09-21T11:35:32;99732.27;;;12.52;75.08
56821;BME280;42702;50.178;20.992;2022-09-21T11:38:10;99728.55;;;12.57;75.53
56821;BME280;42702;50.178;20.992;2022-09-21T11:46:29;99719.30;;;12.79;74.58
56821;BME280;42702;50.178;20.992;2022-09-21T11:52:02;99718.88;;;12.89;74.77
56821;BME280;42702;50.178;20.992;2022-09-21T12:00:16;99707.95;;;12.99;74.36
56821;BME280;42702;50.178;20.992;2022-09-21T12:03:07;99703.88;;;13.05;74.36
56821;BME280;42702;50.178;20.992;2022-09-21T12:06:26;99701.38;;;13.10;74.11
56821;BME280;42702;50.178;20.992;2022-09-21T12:11:45;99695.94;;;13.11;73.79
56821;BME280;42702;50.178;20.992;2022-09-21T12:14:29;99697.48;;;13.14;73.68
56821;BME280;42702;50.178;20.992;2022-09-21T12:17:12;99695.52;;;13.19;73.13
56821;BME280;42702;50.178;20.992;2022-09-21T12:22:29;99698.77;;;13.26;73.00
56821;BME280;42702;50.178;20.992;2022-09-21T12:27:45;99696.73;;;13.20;73.10
56821;BME280;42702;50.178;20.992;2022-09-21T12:30:19;99701.46;;;13.19;72.69
56821;BME280;42702;50.178;20.992;2022-09-21T12:35:42;99693.13;;;13.15;71.75
56821;BME280;42702;50.178;20.992;2022-09-21T12:38:33;99696.05;;;13.18;72.54
56821;BME280;42702;50.178;20.992;2022-09-21T12:41:22;99693.70;;;13.26;72.48
56821;BME280;42702;50.178;20.992;2022-09-21T12:46:54;99694.30;;;13.38;72.34
56821;BME280;42702;50.178;20.992;2022-09-21T12:49:45;99692.92;;;13.34;71.24
56821;BME280;42702;50.178;20.992;2022-09-21T12:52:24;99693.50;;;13.29;71.74
56821;BME280;42702;50.178;20.992;2022-09-21T13:00:20;99688.27;;;13.07;71.51
56821;BME280;42702;50.178;20.992;2022-09-21T13:13:34;99699.80;;;13.10;69.87
56821;BME280;42702;50.178;20.992;2022-09-21T13:16:30;99695.94;;;13.11;70.49
56821;BME280;42702;50.178;20.992;2022-09-21T13:19:02;99696.10;;;13.12;70.70
56821;BME280;42702;50.178;20.992;2022-09-21T13:21:32;99696.97;;;13.13;70.27
56821;BME280;42702;50.178;20.992;2022-09-21T13:24:03;99701.16;;;13.13;70.68
56821;BME280;42702;50.178;20.992;2022-09-21T13:26:36;99700.46;;;13.15;70.72
56821;BME280;42702;50.178;20.992;2022-09-21T13:34:39;99709.84;;;13.04;70.95
56821;BME280;42702;50.178;20.992;2022-09-21T13:42:47;99706.09;;;12.90;71.30
56821;BME280;42702;50.178;20.992;2022-09-21T13:47:56;99702.27;;;12.86;71.49
56821;BME280;42702;50.178;20.992;2022-09-21T13:50:39;99696.67;;;12.87;71.75
56821;BME280;42702;50.178;20.992;2022-09-21T13:53:22;99697.03;;;12.86;71.56
56821;BME280;42702;50.178;20.992;2022-09-21T13:56:00;99698.77;;;12.88;71.83
56821;BME280;42702;50.178;20.992;2022-09-21T13:58:34;99692.94;;;12.94;71.87
56821;BME280;42702;50.178;20.992;2022-09-21T14:01:20;99689.92;;;12.98;72.14
56821;BME280;42702;50.178;20.992;2022-09-21T14:04:26;99689.55;;;13.00;71.87
56821;BME280;42702;50.178;20.992;2022-09-21T14:06:56;99684.31;;;13.00;71.97
56821;BME280;42702;50.178;20.992;2022-09-21T14:09:30;99686.21;;;13.02;72.07
56821;BME280;42702;50.178;20.992;2022-09-21T14:12:03;99683.95;;;13.01;71.50
56821;BME280;42702;50.178;20.992;2022-09-21T14:14:38;99681.34;;;12.99;71.76
56821;BME280;42702;50.178;20.992;2022-09-21T14:17:40;99679.92;;;13.02;72.06
56821;BME280;42702;50.178;20.992;2022-09-21T14:20:30;99676.73;;;13.06;72.11
56821;BME280;42702;50.178;20.992;2022-09-21T14:23:26;99672.15;;;13.09;71.87
56821;BME280;42702;50.178;20.992;2022-09-21T14:25:59;99672.28;;;13.14;71.52
56821;BME280;42702;50.178;20.992;2022-09-21T14:28:34;99669.31;;;13.14;71.56
56821;BME280;42702;50.178;20.992;2022-09-21T14:31:13;99670.19;;;13.13;71.44
56821;BME280;42702;50.178;20.992;2022-09-21T14:33:53;99668.63;;;13.12;70.92
56821;BME280;42702;50.178;20.992;2022-09-21T14:36:36;99667.42;;;13.10;70.51
56821;BME280;42702;50.178;20.992;2022-09-21T14:39:16;99668.48;;;13.08;70.79
56821;BME280;42702;50.178;20.992;2022-09-21T14:41:48;99667.45;;;13.07;70.58
56821;BME280;42702;50.178;20.992;2022-09-21T14:44:20;99666.09;;;13.04;69.95
56821;BME280;42702;50.178;20.992;2022-09-21T14:47:08;99666.25;;;13.05;70.37
56821;BME280;42702;50.178;20.992;2022-09-21T14:56:17;99668.63;;;12.95;70.99
56821;BME280;42702;50.178;20.992;2022-09-21T15:01:59;99669.88;;;12.90;71.25
56821;BME280;42702;50.178;20.992;2022-09-21T15:04:52;99665.59;;;12.99;70.62
56821;BME280;42702;50.178;20.992;2022-09-21T15:07:33;99665.02;;;13.05;70.74
56821;BME280;42702;50.178;20.992;2022-09-21T15:16:42;99675.05;;;12.99;68.84
56821;BME280;42702;50.178;20.992;2022-09-21T15:21:55;99684.34;;;12.76;69.41
56821;BME280;42702;50.178;20.992;2022-09-21T15:24:31;99684.60;;;12.65;69.56
56821;BME280;42702;50.178;20.992;2022-09-21T15:27:04;99686.93;;;12.59;70.17
56821;BME280;42702;50.178;20.992;2022-09-21T15:29:35;99688.38;;;12.51;70.17
56821;BME280;42702;50.178;20.992;2022-09-21T15:32:05;99694.88;;;12.48;70.27
56821;BME280;42702;50.178;20.992;2022-09-21T15:34:34;99691.54;;;12.49;70.51
56821;BME280;42702;50.178;20.992;2022-09-21T15:37:20;99696.80;;;12.46;70.83
56821;BME280;42702;50.178;20.992;2022-09-21T15:39:58;99694.73;;;12.43;71.06
56821;BME280;42702;50.178;20.992;2022-09-21T15:42:28;99693.70;;;12.41;70.78
56821;BME280;42702;50.178;20.992;2022-09-21T15:45:14;99694.41;;;12.37;70.76
56821;BME280;42702;50.178;20.992;2022-09-21T15:47:43;99698.48;;;12.32;70.55
56821;BME280;42702;50.178;20.992;2022-09-21T15:50:13;99699.73;;;12.27;70.47
56821;BME280;42702;50.178;20.992;2022-09-21T15:52:57;99699.05;;;12.21;70.80
56821;BME280;42702;50.178;20.992;2022-09-21T15:55:27;99702.57;;;12.17;70.93
56821;BME280;42702;50.178;20.992;2022-09-21T15:57:57;99703.98;;;12.14;71.06
56821;BME280;42702;50.178;20.992;2022-09-21T16:00:30;99705.19;;;12.17;70.87
56821;BME280;42702;50.178;20.992;2022-09-21T16:03:06;99708.00;;;12.16;71.14
56821;BME280;42702;50.178;20.992;2022-09-21T16:05:49;99713.43;;;12.13;71.05
56821;BME280;42702;50.178;20.992;2022-09-21T16:08:32;99715.71;;;12.11;71.31
56821;BME280;42702;50.178;20.992;2022-09-21T16:13:48;99719.75;;;12.07;71.41
56821;BME280;42702;50.178;20.992;2022-09-21T16:22:20;99722.44;;;11.91;71.73
56821;BME280;42702;50.178;20.992;2022-09-21T16:24:52;99722.60;;;11.91;72.02
56821;BME280;42702;50.178;20.992;2022-09-21T16:27:24;99719.11;;;11.91;72.06
56821;BME280;42702;50.178;20.992;2022-09-21T16:29:53;99717.16;;;11.89;72.35
56821;BME280;42702;50.178;20.992;2022-09-21T16:32:32;99719.42;;;11.89;72.42
56821;BME280;42702;50.178;20.992;2022-09-21T16:37:48;99718.22;;;11.88;72.73